createdAt,value
2023-05-03T00:08:52.380Z,984.01
2023-05-03T00:20:52.833Z,983.99
2023-05-03T00:32:53.325Z,983.90
2023-05-03T00:44:55.208Z,983.78
2023-05-03T00:56:54.222Z,983.82
2023-05-03T01:08:54.661Z,983.75
2023-05-03T01:20:55.122Z,983.75
2023-05-03T01:32:55.606Z,983.71
2023-05-03T01:44:56.035Z,983.68
2023-05-03T01:56:56.499Z,983.69
2023-05-03T02:08:56.959Z,983.72
2023-05-03T02:20:57.384Z,983.76
2023-05-03T02:32:57.897Z,983.74
2023-05-03T02:44:58.303Z,983.69
2023-05-03T02:56:58.734Z,983.62
2023-05-03T03:08:59.173Z,983.73
2023-05-03T03:20:59.666Z,983.80
2023-05-03T03:33:00.154Z,983.76
2023-05-03T03:45:00.549Z,983.89
2023-05-03T03:57:01.044Z,983.92
2023-05-03T04:09:01.468Z,984.06
2023-05-03T04:21:01.907Z,984.04
2023-05-03T04:33:02.425Z,984.12
2023-05-03T04:45:02.832Z,984.23
2023-05-03T04:57:03.306Z,984.24
2023-05-03T05:09:03.780Z,984.24
2023-05-03T05:21:04.175Z,984.30
2023-05-03T05:33:04.692Z,984.41
2023-05-03T05:45:05.081Z,984.45
2023-05-03T05:57:05.517Z,984.52
2023-05-03T06:09:16.629Z,984.64
2023-05-03T06:21:06.437Z,984.65
2023-05-03T06:33:06.959Z,984.78
2023-05-03T06:45:07.327Z,984.94
2023-05-03T06:57:07.819Z,984.94
2023-05-03T07:09:08.246Z,985.02
2023-05-03T07:21:09.459Z,985.14
2023-05-03T07:33:09.191Z,985.09
2023-05-03T07:45:09.627Z,985.11
2023-05-03T07:57:10.064Z,985.20
2023-05-03T08:09:10.525Z,985.14
2023-05-03T08:21:10.969Z,985.21
2023-05-03T08:33:11.495Z,985.11
2023-05-03T08:45:11.889Z,985.21
2023-05-03T08:57:12.376Z,985.31
2023-05-03T09:09:12.870Z,985.19
2023-05-03T09:21:13.257Z,985.19
2023-05-03T09:33:13.688Z,985.07
2023-05-03T09:45:14.173Z,985.19
2023-05-03T09:57:14.629Z,985.23
2023-05-03T10:09:15.081Z,985.23
2023-05-03T10:21:15.965Z,985.17
2023-05-03T10:33:15.984Z,985.20
2023-05-03T10:45:16.413Z,985.00
2023-05-03T10:57:16.871Z,984.97
2023-05-03T11:09:17.327Z,985.06
2023-05-03T11:21:17.976Z,984.98
2023-05-03T11:33:18.209Z,984.89
2023-05-03T11:45:19.792Z,984.83
2023-05-03T11:57:19.185Z,984.85
2023-05-03T12:09:21.243Z,984.90
2023-05-03T12:33:22.577Z,984.84
2023-05-03T12:45:21.752Z,984.65
2023-05-03T12:57:23.661Z,984.42
2023-05-03T13:09:28.314Z,984.41
2023-05-03T13:21:22.333Z,984.35
2023-05-03T13:33:22.832Z,984.31
2023-05-03T13:45:23.283Z,984.23
2023-05-03T13:57:24.680Z,984.23
2023-05-03T14:09:24.148Z,984.20
2023-05-03T14:21:24.641Z,984.40
2023-05-03T14:33:25.083Z,984.34
2023-05-03T14:45:25.532Z,984.35
2023-05-03T14:57:25.966Z,984.49
2023-05-03T15:09:26.442Z,984.49
2023-05-03T15:21:26.921Z,984.64
2023-05-03T15:33:27.395Z,984.52
2023-05-03T15:45:27.778Z,984.49
2023-05-03T15:57:28.896Z,984.57
2023-05-03T16:09:28.720Z,984.52
2023-05-03T16:21:29.141Z,984.53
2023-05-03T16:33:29.595Z,984.57
2023-05-03T16:45:30.107Z,984.50
2023-05-03T16:57:30.518Z,984.49
2023-05-03T17:09:30.951Z,984.49
2023-05-03T17:21:31.434Z,984.67
2023-05-03T17:33:31.868Z,984.74
2023-05-03T17:45:32.345Z,984.77
2023-05-03T17:57:32.790Z,984.98
2023-05-03T18:09:33.255Z,984.93
2023-05-03T18:21:33.733Z,985.05
2023-05-03T18:33:34.199Z,985.20
2023-05-03T18:45:34.587Z,985.35
2023-05-03T18:57:35.043Z,985.38
2023-05-03T19:09:35.515Z,985.52
2023-05-03T19:21:36.002Z,985.56
2023-05-03T19:33:36.439Z,985.62
2023-05-03T19:45:36.851Z,985.71
2023-05-03T19:57:37.364Z,985.70
2023-05-03T20:09:37.792Z,985.59
2023-05-03T20:21:38.222Z,985.61
2023-05-03T20:33:38.648Z,985.60
2023-05-03T20:45:39.175Z,985.53
2023-05-03T20:57:39.587Z,985.60
2023-05-03T21:09:40.054Z,985.53
2023-05-03T21:21:40.477Z,985.58
2023-05-03T21:33:40.941Z,985.55
2023-05-03T21:45:41.416Z,985.60
2023-05-03T21:57:41.877Z,985.60
2023-05-03T22:09:42.281Z,985.55
2023-05-03T22:21:42.740Z,985.55
2023-05-03T22:33:43.217Z,985.53
2023-05-03T22:45:43.692Z,985.55
2023-05-03T22:57:44.110Z,985.57
2023-05-03T23:09:44.547Z,985.45
2023-05-03T23:21:45.054Z,985.43
2023-05-03T23:33:45.471Z,985.33
2023-05-03T23:45:45.968Z,985.30
2023-05-03T23:57:46.373Z,985.37
